Time;durP1;ratioP1;P1;durP2;ratioP2;P2;SDS_P1;SDS_P2;PMS_P1;PMS_P2;Temp;Humidity;BMP_temperature;BMP_pressure;BME280_temperature;BME280_humidity;BME280_pressure;Samples;Min_cycle;Max_cycle;Signal;HPM_P1;HPM_P2
2023/04/11 00:00:18;;;;;;;2.65;1.20;;;;;12.40;98169.00;;;;5053880;28;20045;-60
2023/04/11 00:02:45;;;;;;;1.88;1.52;;;;;12.40;98181.00;;;;5055354;28;20037;-60
2023/04/11 00:05:12;;;;;;;4.20;1.73;;;;;12.50;98176.00;;;;5055786;28;20452;-60
2023/04/11 00:07:39;;;;;;;1.98;1.48;;;;;12.60;98184.00;;;;5055622;28;20394;-61
2023/04/11 00:10:06;;;;;;;1.50;1.40;;;;;12.60;98181.00;;;;5054928;28;20059;-61
2023/04/11 00:12:32;;;;;;;3.95;2.45;;;;;12.60;98168.00;;;;5053781;28;20048;-61
2023/04/11 00:14:59;;;;;;;1.80;1.60;;;;;12.60;98160.00;;;;5055038;28;20037;-61
2023/04/11 00:17:27;;;;;;;1.73;1.50;;;;;12.60;98182.00;;;;5054945;28;20079;-61
2023/04/11 00:19:54;;;;;;;1.85;1.60;;;;;12.60;98192.00;;;;5054773;28;20045;-61
2023/04/11 00:22:22;;;;;;;4.47;1.60;;;;;12.60;98186.00;;;;5054720;28;20095;-61
2023/04/11 00:24:49;;;;;;;3.25;1.42;;;;;12.50;98182.00;;;;5055052;28;20466;-61
2023/04/11 00:27:16;;;;;;;1.48;1.20;;;;;12.50;98196.00;;;;5055267;28;20102;-61
2023/04/11 00:29:42;;;;;;;3.10;1.20;;;;;12.50;98190.00;;;;5055458;28;20058;-61
2023/04/11 00:32:09;;;;;;;3.75;1.25;;;;;12.40;98193.00;;;;5055648;28;20060;-60
2023/04/11 00:34:35;;;;;;;1.17;1.08;;;;;12.30;98191.00;;;;5055836;28;20041;-60
2023/04/11 00:37:02;;;;;;;1.65;1.08;;;;;12.30;98193.00;;;;5055096;28;20074;-58
2023/04/11 00:39:32;;;;;;;1.35;1.10;;;;;12.30;98180.00;;;;5056006;28;20052;-57
2023/04/11 00:42:06;;;;;;;3.42;1.50;;;;;12.30;98181.00;;;;5054444;28;20600;-59
2023/04/11 00:44:34;;;;;;;4.35;1.27;;;;;12.20;98175.00;;;;5053439;28;20059;-59
2023/04/11 00:47:04;;;;;;;2.00;0.98;;;;;12.30;98159.00;;;;5053650;28;20387;-58
2023/04/11 00:49:31;;;;;;;2.47;0.95;;;;;12.30;98154.00;;;;5054407;28;20037;-55
2023/04/11 00:51:58;;;;;;;1.88;1.05;;;;;12.40;98171.00;;;;5053334;28;20063;-57
2023/04/11 00:54:29;;;;;;;1.33;0.95;;;;;12.40;98182.00;;;;5054652;28;20049;-58
2023/04/11 00:56:58;;;;;;;1.42;0.90;;;;;12.30;98176.00;;;;5036698;28;20048;-58
2023/04/11 00:59:27;;;;;;;1.60;0.93;;;;;12.20;98164.00;;;;5036183;28;20053;-59
2023/04/11 01:01:54;;;;;;;1.83;0.85;;;;;12.20;98178.00;;;;5054013;28;20094;-59
2023/04/11 01:04:20;;;;;;;4.10;0.80;;;;;12.20;98167.00;;;;5051849;28;20041;-59
2023/04/11 01:06:51;;;;;;;2.30;0.88;;;;;12.20;98162.00;;;;5053181;28;20049;-58
2023/04/11 01:09:24;;;;;;;2.08;1.00;;;;;12.10;98162.00;;;;5052784;28;20071;-57
2023/04/11 01:11:50;;;;;;;3.28;0.90;;;;;12.20;98153.00;;;;5052750;28;20122;-58
2023/04/11 01:14:19;;;;;;;4.47;1.02;;;;;12.20;98156.00;;;;5052587;28;20382;-59
2023/04/11 01:16:47;;;;;;;2.85;1.08;;;;;12.30;98174.00;;;;5053881;28;20422;-58
2023/04/11 01:19:18;;;;;;;3.75;0.98;;;;;12.30;98177.00;;;;5052375;28;20140;-57
2023/04/11 01:21:50;;;;;;;2.20;1.10;;;;;12.30;98173.00;;;;5053589;28;20053;-58
2023/04/11 01:24:17;;;;;;;1.75;0.95;;;;;12.20;98166.00;;;;5052878;28;20075;-57
2023/04/11 01:26:45;;;;;;;5.20;1.38;;;;;12.20;98162.00;;;;5052287;28;20045;-58
2023/04/11 01:29:13;;;;;;;2.28;1.27;;;;;12.10;98173.00;;;;5052199;28;20136;-58
2023/04/11 01:31:40;;;;;;;2.58;0.98;;;;;12.20;98183.00;;;;5053584;28;20036;-57
2023/04/11 01:34:07;;;;;;;1.23;0.90;;;;;12.10;98179.00;;;;5053480;28;20065;-58
2023/04/11 01:36:33;;;;;;;6.03;1.48;;;;;12.10;98183.00;;;;5052299;28;20056;-57
2023/04/11 01:39:00;;;;;;;1.27;0.90;;;;;12.10;98183.00;;;;5053376;28;20044;-56
2023/04/11 01:41:29;;;;;;;0.85;0.80;;;;;12.00;98173.00;;;;5053234;28;20047;-59
2023/04/11 01:43:58;;;;;;;2.20;0.80;;;;;11.90;98169.00;;;;5053808;28;20037;-58
2023/04/11 01:46:24;;;;;;;4.75;1.50;;;;;11.90;98182.00;;;;5053555;28;20033;-58
2023/04/11 01:48:54;;;;;;;1.85;1.23;;;;;11.90;98170.00;;;;5053116;28;20041;-58
2023/04/11 01:51:21;;;;;;;1.98;1.10;;;;;11.90;98165.00;;;;5053929;28;20088;-58
2023/04/11 01:53:47;;;;;;;1.50;0.90;;;;;11.80;98162.00;;;;5053706;28;20041;-59
2023/04/11 01:56:14;;;;;;;1.95;0.80;;;;;11.80;98161.00;;;;5053203;28;20076;-59
2023/04/11 01:58:41;;;;;;;1.65;1.00;;;;;11.80;98161.00;;;;5051692;28;20053;-57
2023/04/11 02:01:08;;;;;;;4.65;1.33;;;;;11.80;98161.00;;;;5051884;28;20526;-61
2023/04/11 02:03:35;;;;;;;2.45;1.08;;;;;11.80;98157.00;;;;5051804;28;20049;-59
2023/04/11 02:06:03;;;;;;;1.90;1.08;;;;;11.80;98160.00;;;;5053026;28;20041;-59
2023/04/11 02:08:29;;;;;;;1.55;1.30;;;;;11.70;98165.00;;;;5053028;28;20120;-59
2023/04/11 02:10:56;;;;;;;2.70;1.20;;;;;11.70;98154.00;;;;5051495;28;20559;-59
2023/04/11 02:13:22;;;;;;;2.97;1.30;;;;;11.80;98154.00;;;;5052910;28;20269;-58
2023/04/11 02:15:49;;;;;;;2.05;1.30;;;;;11.80;98170.00;;;;5052478;28;20490;-59
2023/04/11 02:18:16;;;;;;;3.33;1.30;;;;;11.80;98173.00;;;;5051863;28;20056;-59
2023/04/11 02:20:43;;;;;;;4.05;1.20;;;;;11.90;98167.00;;;;5052682;28;20056;-60
2023/04/11 02:23:09;;;;;;;3.88;1.30;;;;;11.80;98162.00;;;;5051393;28;20503;-60
2023/04/11 02:25:38;;;;;;;2.30;1.48;;;;;11.80;98166.00;;;;5051242;28;20045;-59
2023/04/11 02:28:04;;;;;;;3.22;1.20;;;;;11.80;98171.00;;;;5052602;28;20076;-59
2023/04/11 02:30:33;;;;;;;3.45;1.20;;;;;11.80;98174.00;;;;5052447;28;20144;-59
2023/04/11 02:33:00;;;;;;;4.63;1.30;;;;;11.70;98175.00;;;;5052599;28;20114;-59
2023/04/11 02:35:27;;;;;;;4.70;2.22;;;;;11.70;98175.00;;;;5052587;28;20048;-58
2023/04/11 02:37:53;;;;;;;3.75;1.40;;;;;11.60;98172.00;;;;5052526;28;20067;-59
2023/04/11 02:40:21;;;;;;;1.77;1.10;;;;;11.60;98168.00;;;;5051160;28;20107;-60
2023/04/11 02:42:47;;;;;;;2.05;1.58;;;;;11.60;98165.00;;;;5052950;28;20045;-59
2023/04/11 02:45:15;;;;;;;2.03;1.65;;;;;11.60;98170.00;;;;5051491;28;20037;-61
2023/04/11 02:47:42;;;;;;;3.83;1.30;;;;;11.60;98180.00;;;;5051344;28;20414;-60
2023/04/11 02:50:10;;;;;;;4.53;1.40;;;;;11.60;98180.00;;;;5050840;28;20068;-60
2023/04/11 02:52:44;;;;;;;1.80;1.27;;;;;11.50;98176.00;;;;5051460;28;20056;-61
2023/04/11 02:55:13;;;;;;;4.05;1.45;;;;;11.50;98182.00;;;;5051069;28;20072;-60
2023/04/11 02:57:40;;;;;;;3.30;1.50;;;;;11.50;98192.00;;;;5050991;28;20505;-61
2023/04/11 03:00:10;;;;;;;2.55;1.30;;;;;11.40;98182.00;;;;5035074;28;20413;-61
2023/04/11 03:02:47;;;;;;;2.50;1.13;;;;;11.40;98191.00;;;;5051144;28;20067;-60
2023/04/11 03:05:18;;;;;;;3.30;1.20;;;;;11.30;98195.00;;;;5051391;28;20045;-60
2023/04/11 03:07:47;;;;;;;1.23;1.13;;;;;11.30;98194.00;;;;5051011;28;20099;-60
2023/04/11 03:10:14;;;;;;;2.80;1.20;;;;;11.30;98196.00;;;;5050853;28;20482;-60
2023/04/11 03:12:41;;;;;;;1.42;1.20;;;;;11.30;98212.00;;;;5051317;28;20041;-60
2023/04/11 03:15:10;;;;;;;2.95;1.40;;;;;11.30;98212.00;;;;5050884;28;20494;-60
2023/04/11 03:17:36;;;;;;;2.72;1.33;;;;;11.30;98215.00;;;;5051001;28;20048;-60
2023/04/11 03:20:06;;;;;;;3.30;1.30;;;;;11.30;98211.00;;;;5050582;28;20098;-60
2023/04/11 03:22:33;;;;;;;2.38;1.23;;;;;11.20;98216.00;;;;5050975;28;20051;-60
2023/04/11 03:24:59;;;;;;;1.48;0.95;;;;;11.20;98214.00;;;;5050624;28;20049;-60
2023/04/11 03:27:26;;;;;;;1.20;1.00;;;;;11.20;98221.00;;;;5053344;28;20041;-60
2023/04/11 03:29:57;;;;;;;1.60;1.05;;;;;11.20;98219.00;;;;5054583;28;20049;-60
2023/04/11 03:32:32;;;;;;;2.90;1.10;;;;;11.10;98194.00;;;;5054852;28;20068;-60
2023/04/11 03:35:00;;;;;;;1.50;1.23;;;;;11.10;98203.00;;;;5056028;28;20040;-60
2023/04/11 03:37:27;;;;;;;1.83;0.88;;;;;11.10;98194.00;;;;5054785;28;20052;-61
2023/04/11 03:39:53;;;;;;;1.45;0.70;;;;;11.10;98190.00;;;;5054451;28;20421;-62
2023/04/11 03:42:20;;;;;;;3.40;0.90;;;;;11.10;98191.00;;;;5054623;28;20086;-61
2023/04/11 03:44:51;;;;;;;1.40;0.90;;;;;11.00;98192.00;;;;5054625;28;20045;-60
2023/04/11 03:47:18;;;;;;;2.10;0.77;;;;;10.90;98196.00;;;;5054568;28;20053;-61
2023/04/11 03:49:44;;;;;;;3.08;0.80;;;;;10.90;98185.00;;;;5053988;28;20056;-60
2023/04/11 03:52:16;;;;;;;2.25;0.77;;;;;10.90;98198.00;;;;5054274;28;20081;-60
2023/04/11 03:54:45;;;;;;;2.05;0.77;;;;;10.80;98189.00;;;;5054162;28;20099;-61
2023/04/11 03:57:14;;;;;;;2.63;0.80;;;;;10.80;98179.00;;;;5053953;28;20513;-61
2023/04/11 03:59:41;;;;;;;2.80;1.00;;;;;10.90;98187.00;;;;5054003;28;20071;-61
2023/04/11 04:02:10;;;;;;;4.05;1.00;;;;;10.90;98201.00;;;;5054003;28;20103;-60
2023/04/11 04:04:45;;;;;;;2.03;0.80;;;;;10.80;98192.00;;;;5055553;28;20041;-60
2023/04/11 04:07:26;;;;;;;2.45;1.30;;;;;10.80;98214.00;;;;5054103;28;20573;-60
2023/04/11 04:10:03;;;;;;;4.05;1.38;;;;;10.90;98212.00;;;;5053817;28;20076;-60
2023/04/11 04:12:31;;;;;;;4.35;1.30;;;;;10.90;98204.00;;;;5054284;28;20536;-61
2023/04/11 04:15:13;;;;;;;3.53;1.02;;;;;10.90;98217.00;;;;5054117;28;20048;-61
2023/04/11 04:17:46;;;;;;;5.40;1.25;;;;;10.90;98217.00;;;;5038117;28;20052;-60
2023/04/11 04:20:33;;;;;;;3.65;0.90;;;;;10.80;98210.00;;;;5047349;28;20402;-58
2023/04/11 04:22:59;;;;;;;3.03;1.10;;;;;10.80;98210.00;;;;5053882;28;20059;-60
2023/04/11 04:25:41;;;;;;;5.07;1.40;;;;;10.70;98203.00;;;;5053778;28;20041;-61
2023/04/11 04:28:09;;;;;;;2.17;1.10;;;;;10.70;98208.00;;;;5053621;28;20049;-61
2023/04/11 04:30:38;;;;;;;6.25;1.60;;;;;10.70;98220.00;;;;5053321;28;20524;-61
2023/04/11 04:33:11;;;;;;;4.95;1.67;;;;;10.70;98226.00;;;;5054848;28;20106;-61
2023/04/11 04:35:41;;;;;;;4.63;1.88;;;;;10.70;98234.00;;;;5053596;28;20045;-61
2023/04/11 04:38:08;;;;;;;6.07;1.50;;;;;10.60;98244.00;;;;5053475;28;20059;-59
2023/04/11 04:40:48;;;;;;;3.25;1.17;;;;;10.60;98261.00;;;;5053347;28;20387;-60
2023/04/11 04:43:21;;;;;;;3.03;1.13;;;;;10.50;98254.00;;;;5053733;28;20437;-58
2023/04/11 04:45:57;;;;;;;6.50;2.50;;;;;10.50;98254.00;;;;5053308;28;20069;-59
2023/04/11 04:48:37;;;;;;;4.22;1.55;;;;;10.50;98242.00;;;;5053054;28;20052;-60
2023/04/11 04:51:05;;;;;;;5.85;1.90;;;;;10.60;98263.00;;;;5053431;28;20572;-59
2023/04/11 04:53:37;;;;;;;4.00;1.40;;;;;10.60;98262.00;;;;5054783;28;20068;-60
2023/04/11 04:56:06;;;;;;;3.30;1.15;;;;;10.50;98261.00;;;;5053281;28;20063;-58
2023/04/11 04:58:36;;;;;;;2.70;1.23;;;;;10.50;98274.00;;;;5053410;28;20051;-59
2023/04/11 05:01:07;;;;;;;4.97;1.85;;;;;10.50;98274.00;;;;5053554;28;20485;-58
2023/04/11 05:03:37;;;;;;;4.00;1.35;;;;;10.50;98285.00;;;;5054057;28;20563;-60
2023/04/11 05:06:08;;;;;;;4.32;1.35;;;;;10.50;98288.00;;;;5054412;28;20390;-57
2023/04/11 05:08:36;;;;;;;6.53;2.03;;;;;10.50;98286.00;;;;5037369;28;20068;-56
2023/04/11 05:11:05;;;;;;;5.90;1.92;;;;;10.50;98284.00;;;;5053248;28;20045;-59
2023/04/11 05:13:42;;;;;;;4.40;1.70;;;;;10.50;98281.00;;;;5053736;28;20084;-61
2023/04/11 05:16:08;;;;;;;4.18;1.67;;;;;10.50;98285.00;;;;5053027;28;20041;-57
2023/04/11 05:18:37;;;;;;;2.65;1.63;;;;;10.50;98272.00;;;;5052813;28;20045;-58
2023/04/11 05:21:04;;;;;;;3.97;1.58;;;;;10.50;98280.00;;;;5053154;28;20057;-59
2023/04/11 05:23:37;;;;;;;7.38;1.92;;;;;10.40;98282.00;;;;5053028;28;20048;-56
2023/04/11 05:26:06;;;;;;;3.50;1.50;;;;;10.40;98284.00;;;;5052726;28;20041;-57
2023/04/11 05:28:34;;;;;;;6.30;1.90;;;;;10.50;98292.00;;;;5052375;28;20434;-60
2023/04/11 05:31:05;;;;;;;6.13;1.70;;;;;10.40;98299.00;;;;5052669;28;20456;-59
2023/04/11 05:33:32;;;;;;;7.20;1.80;;;;;10.40;98309.00;;;;5052701;28;20041;-58
2023/04/11 05:35:59;;;;;;;3.83;1.63;;;;;10.40;98302.00;;;;5052922;28;20071;-58
2023/04/11 05:38:26;;;;;;;5.68;1.85;;;;;10.40;98307.00;;;;5052805;28;20071;-60
2023/04/11 05:40:52;;;;;;;6.10;2.08;;;;;10.40;98296.00;;;;5052069;28;20045;-60
2023/04/11 05:43:19;;;;;;;3.67;1.40;;;;;10.30;98305.00;;;;5053523;28;20099;-58
2023/04/11 05:45:46;;;;;;;5.43;1.58;;;;;10.30;98312.00;;;;5053926;28;20041;-57
2023/04/11 05:48:16;;;;;;;5.30;1.63;;;;;10.30;98307.00;;;;5053773;28;20049;-58
2023/04/11 05:50:42;;;;;;;5.13;1.60;;;;;10.40;98311.00;;;;5035354;28;20056;-57
2023/04/11 05:53:09;;;;;;;5.75;1.80;;;;;10.50;98325.00;;;;5054088;28;20049;-59
2023/04/11 05:55:36;;;;;;;8.50;1.75;;;;;10.50;98315.00;;;;5054483;28;20059;-58
2023/04/11 05:58:03;;;;;;;6.50;2.17;;;;;10.50;98326.00;;;;5053816;28;20036;-59
2023/04/11 06:00:31;;;;;;;8.55;2.10;;;;;10.40;98328.00;;;;5053037;28;20520;-58
2023/04/11 06:03:00;;;;;;;9.02;2.40;;;;;10.40;98327.00;;;;5053247;28;20401;-60
2023/04/11 06:05:30;;;;;;;6.40;2.97;;;;;10.60;98326.00;;;;5052107;28;20056;-58
2023/04/11 06:07:58;;;;;;;5.72;1.88;;;;;10.80;98329.00;;;;5053522;28;20079;-59
2023/04/11 06:10:25;;;;;;;7.72;1.85;;;;;10.90;98325.00;;;;5051995;28;20041;-60
2023/04/11 06:12:55;;;;;;;4.10;1.83;;;;;11.00;98331.00;;;;5053147;28;20053;-60
2023/04/11 06:15:23;;;;;;;5.88;2.10;;;;;10.90;98343.00;;;;5052939;28;20041;-58
2023/04/11 06:17:50;;;;;;;7.05;1.90;;;;;10.90;98341.00;;;;5052673;28;20049;-60
2023/04/11 06:20:16;;;;;;;8.55;2.55;;;;;10.80;98335.00;;;;5052649;28;20079;-60
2023/04/11 06:22:45;;;;;;;7.32;2.15;;;;;10.90;98336.00;;;;5052876;28;20044;-61
2023/04/11 06:25:11;;;;;;;6.20;1.50;;;;;11.00;98345.00;;;;5052860;28;20556;-60
2023/04/11 06:27:38;;;;;;;11.10;2.38;;;;;11.10;98341.00;;;;5052771;28;20490;-61
2023/04/11 06:30:05;;;;;;;8.45;2.13;;;;;11.20;98341.00;;;;5052669;28;20056;-60
2023/04/11 06:32:32;;;;;;;9.40;2.00;;;;;11.30;98353.00;;;;5052677;28;20460;-61
2023/04/11 06:34:58;;;;;;;8.38;2.00;;;;;11.30;98365.00;;;;5051748;28;20132;-61
2023/04/11 06:37:26;;;;;;;8.55;2.00;;;;;11.20;98352.00;;;;5053125;28;20555;-61
2023/04/11 06:39:52;;;;;;;10.60;1.80;;;;;11.20;98358.00;;;;5052542;28;20107;-60
2023/04/11 06:42:19;;;;;;;3.72;1.60;;;;;11.30;98358.00;;;;5052810;28;20055;-61
2023/04/11 06:44:49;;;;;;;6.20;1.70;;;;;11.40;98369.00;;;;5051142;28;20045;-61
2023/04/11 06:47:16;;;;;;;9.20;2.20;;;;;11.40;98378.00;;;;5052418;28;20049;-60
2023/04/11 06:49:42;;;;;;;4.93;1.60;;;;;11.30;98381.00;;;;5052197;28;20063;-62
2023/04/11 06:52:09;;;;;;;7.10;1.70;;;;;11.40;98388.00;;;;5053339;28;20090;-61
2023/04/11 06:54:35;;;;;;;5.63;1.95;;;;;11.50;98397.00;;;;5053732;28;20041;-60
2023/04/11 06:57:02;;;;;;;5.70;1.70;;;;;11.40;98390.00;;;;5053892;28;20041;-61
2023/04/11 06:59:28;;;;;;;9.43;2.75;;;;;11.40;98398.00;;;;5053685;28;20044;-61
2023/04/11 07:01:55;;;;;;;7.00;2.00;;;;;11.40;98382.00;;;;5050680;28;20095;-59
2023/04/11 07:04:22;;;;;;;6.10;1.80;;;;;11.50;98377.00;;;;5051766;28;20052;-61
2023/04/11 07:06:48;;;;;;;9.02;2.38;;;;;11.50;98390.00;;;;5052553;28;20120;-61
2023/04/11 07:09:15;;;;;;;4.95;1.40;;;;;11.40;98393.00;;;;5052106;28;20048;-61
2023/04/11 07:11:42;;;;;;;7.47;1.73;;;;;11.40;98379.00;;;;5051127;28;20049;-61
2023/04/11 07:14:08;;;;;;;6.78;1.55;;;;;11.40;98378.00;;;;5052189;28;20056;-61
2023/04/11 07:16:35;;;;;;;6.10;1.88;;;;;11.40;98380.00;;;;5052034;28;20045;-61
2023/04/11 07:19:02;;;;;;;5.18;1.63;;;;;11.30;98378.00;;;;5052469;28;20049;-61
2023/04/11 07:21:30;;;;;;;9.27;2.05;;;;;11.20;98379.00;;;;5052662;28;20119;-60
2023/04/11 07:23:59;;;;;;;8.20;1.95;;;;;11.20;98380.00;;;;5052642;28;20044;-61
2023/04/11 07:26:30;;;;;;;9.40;2.03;;;;;11.30;98375.00;;;;5052518;28;20033;-60
2023/04/11 07:29:01;;;;;;;7.47;1.67;;;;;11.30;98375.00;;;;5051606;28;20414;-59
2023/04/11 07:31:27;;;;;;;7.47;1.88;;;;;11.40;98388.00;;;;5053876;28;20041;-60
2023/04/11 07:33:54;;;;;;;7.82;1.90;;;;;11.40;98380.00;;;;5053417;28;20072;-60
2023/04/11 07:36:21;;;;;;;8.15;1.60;;;;;11.60;98388.00;;;;5052486;28;20082;-60
2023/04/11 07:38:48;;;;;;;9.80;1.75;;;;;11.50;98396.00;;;;5052345;28;20051;-60
2023/04/11 07:41:15;;;;;;;7.22;1.88;;;;;11.60;98399.00;;;;5052287;28;20071;-59
2023/04/11 07:43:41;;;;;;;9.43;2.65;;;;;11.70;98398.00;;;;5052408;28;20079;-60
2023/04/11 07:46:08;;;;;;;7.32;2.03;;;;;11.70;98388.00;;;;5052264;28;20041;-62
2023/04/11 07:48:35;;;;;;;9.10;2.50;;;;;11.90;98387.00;;;;5052055;28;20520;-59
2023/04/11 07:51:01;;;;;;;14.48;2.10;;;;;12.10;98404.00;;;;5052333;28;20045;-60
2023/04/11 07:53:29;;;;;;;6.05;1.98;;;;;12.30;98393.00;;;;5052473;28;20452;-60
2023/04/11 07:55:56;;;;;;;7.35;2.13;;;;;12.40;98404.00;;;;5052422;28;20067;-59
2023/04/11 07:58:22;;;;;;;8.45;2.20;;;;;12.40;98399.00;;;;5052076;28;20387;-59
2023/04/11 08:00:49;;;;;;;9.68;2.67;;;;;12.70;98396.00;;;;5052067;28;20110;-60
2023/04/11 08:03:16;;;;;;;12.45;2.67;;;;;12.70;98393.00;;;;5052665;28;20506;-59
2023/04/11 08:05:43;;;;;;;10.05;2.13;;;;;12.70;98390.00;;;;5051297;28;20509;-60
2023/04/11 08:08:10;;;;;;;9.00;1.88;;;;;12.70;98382.00;;;;5051949;28;20037;-60
2023/04/11 08:10:36;;;;;;;9.18;2.00;;;;;12.80;98380.00;;;;5052304;28;20609;-60
2023/04/11 08:13:03;;;;;;;7.05;1.92;;;;;12.90;98384.00;;;;5052759;28;20049;-60
2023/04/11 08:15:30;;;;;;;9.77;2.08;;;;;12.90;98388.00;;;;5055589;28;20055;-60
2023/04/11 08:17:58;;;;;;;8.05;1.92;;;;;12.90;98388.00;;;;5055388;28;20060;-60
2023/04/11 08:20:25;;;;;;;7.47;1.65;;;;;13.00;98389.00;;;;5055166;28;20045;-59
2023/04/11 08:22:51;;;;;;;10.13;2.25;;;;;13.00;98407.00;;;;5055083;28;20045;-60
2023/04/11 08:25:24;;;;;;;6.25;1.77;;;;;12.90;98414.00;;;;5054331;28;20434;-62
2023/04/11 08:27:51;;;;;;;7.75;2.17;;;;;12.80;98413.00;;;;5055565;28;20425;-61
2023/04/11 08:30:17;;;;;;;5.28;1.63;;;;;12.80;98413.00;;;;5055254;28;20124;-61
2023/04/11 08:32:44;;;;;;;6.43;2.03;;;;;13.10;98411.00;;;;5055619;28;20565;-60
2023/04/11 08:35:11;;;;;;;9.10;1.77;;;;;13.30;98416.00;;;;5055536;28;20044;-61
2023/04/11 08:37:38;;;;;;;9.32;2.05;;;;;13.30;98421.00;;;;5055264;28;20099;-60
2023/04/11 08:40:05;;;;;;;7.90;1.73;;;;;13.10;98423.00;;;;5054943;28;20644;-60
2023/04/11 08:42:33;;;;;;;11.05;2.20;;;;;13.00;98434.00;;;;5055315;28;20041;-62
2023/04/11 08:45:03;;;;;;;7.63;2.15;;;;;13.00;98433.00;;;;5055594;28;20047;-60
2023/04/11 08:47:30;;;;;;;7.45;2.42;;;;;13.10;98426.00;;;;5055698;28;20560;-61
2023/04/11 08:49:57;;;;;;;5.45;1.40;;;;;13.30;98426.00;;;;5054968;28;20044;-61
2023/04/11 08:52:24;;;;;;;5.07;1.85;;;;;13.50;98427.00;;;;5055167;28;20037;-61
2023/04/11 08:54:53;;;;;;;10.50;2.15;;;;;13.60;98425.00;;;;5055029;28;20045;-62
2023/04/11 08:57:30;;;;;;;8.73;2.30;;;;;13.80;98428.00;;;;5055420;28;20051;-60
2023/04/11 08:59:59;;;;;;;5.72;1.58;;;;;13.80;98428.00;;;;5055674;28;20057;-60
2023/04/11 09:02:26;;;;;;;9.52;2.30;;;;;13.80;98431.00;;;;5054657;28;20059;-61
2023/04/11 09:04:53;;;;;;;4.43;1.67;;;;;14.00;98431.00;;;;5054867;28;20450;-60
2023/04/11 09:07:20;;;;;;;6.28;1.85;;;;;14.20;98432.00;;;;5054911;28;20041;-60
2023/04/11 09:09:47;;;;;;;9.73;1.90;;;;;14.30;98432.00;;;;5054224;28;20099;-61
2023/04/11 09:12:14;;;;;;;7.88;2.10;;;;;14.40;98444.00;;;;5054649;28;20048;-61
2023/04/11 09:14:40;;;;;;;6.13;2.00;;;;;14.60;98423.00;;;;5055155;28;20053;-61
2023/04/11 09:17:15;;;;;;;5.93;2.50;;;;;14.70;98418.00;;;;5065398;28;20033;-61
2023/04/11 09:19:42;;;;;;;6.85;2.05;;;;;14.70;98443.00;;;;5068091;28;20043;-60
2023/04/11 09:22:11;;;;;;;6.80;1.48;;;;;14.50;98423.00;;;;5068098;28;20051;-61
2023/04/11 09:24:38;;;;;;;8.23;2.00;;;;;14.60;98426.00;;;;5067488;28;20178;-60
2023/04/11 09:27:05;;;;;;;6.20;2.00;;;;;14.80;98432.00;;;;5069851;28;20056;-60
2023/04/11 09:29:37;;;;;;;6.25;2.17;;;;;14.80;98439.00;;;;5066958;28;20067;-58
2023/04/11 09:32:04;;;;;;;3.47;1.25;;;;;14.70;98435.00;;;;5060556;28;20037;-58
2023/04/11 09:34:32;;;;;;;4.43;1.30;;;;;14.90;98448.00;;;;5059296;28;20510;-60
2023/04/11 09:37:00;;;;;;;4.68;1.60;;;;;14.90;98445.00;;;;5060791;28;20037;-57
2023/04/11 09:39:28;;;;;;;7.00;1.50;;;;;15.00;98447.00;;;;5060848;28;20052;-58
2023/04/11 09:41:55;;;;;;;7.25;1.92;;;;;15.00;98446.00;;;;5057079;28;20045;-59
2023/04/11 09:44:37;;;;;;;8.88;1.42;;;;;15.00;98437.00;;;;5055148;28;20049;-59
2023/04/11 09:47:04;;;;;;;6.15;1.50;;;;;14.90;98439.00;;;;5054348;28;20037;-60
2023/04/11 09:49:33;;;;;;;5.95;1.38;;;;;14.80;98447.00;;;;5053752;28;20053;-60
2023/04/11 09:52:00;;;;;;;7.07;1.55;;;;;14.70;98446.00;;;;5054167;28;20502;-56
2023/04/11 09:54:27;;;;;;;6.95;1.70;;;;;14.80;98463.00;;;;5054868;28;20099;-58
2023/04/11 09:56:56;;;;;;;7.10;1.55;;;;;14.60;98469.00;;;;5054170;28;20044;-58
2023/04/11 09:59:25;;;;;;;6.38;1.77;;;;;14.60;98477.00;;;;5053960;28;20068;-60
2023/04/11 10:01:52;;;;;;;5.35;1.70;;;;;14.40;98479.00;;;;5054181;28;20087;-58
2023/04/11 10:04:20;;;;;;;3.40;1.25;;;;;14.30;98493.00;;;;5054433;28;20044;-59
2023/04/11 10:07:00;;;;;;;3.35;1.00;;;;;14.10;98479.00;;;;5054136;28;20045;-59
2023/04/11 10:09:30;;;;;;;1.90;0.80;;;;;13.80;98480.00;;;;5053021;28;20053;-60
2023/04/11 10:11:56;;;;;;;3.28;0.82;;;;;13.60;98473.00;;;;5053639;28;20045;-60
2023/04/11 10:14:38;;;;;;;3.00;0.90;;;;;13.50;98468.00;;;;5052894;28;20091;-59
2023/04/11 10:17:19;;;;;;;4.00;1.30;;;;;13.50;98477.00;;;;5053032;28;20124;-60
2023/04/11 10:19:50;;;;;;;3.85;1.77;;;;;13.60;98469.00;;;;5052716;28;20452;-58
2023/04/11 10:22:47;;;;;;;6.40;1.20;;;;;13.70;98477.00;;;;5052840;28;20099;-59
2023/04/11 10:25:15;;;;;;;4.45;1.27;;;;;13.80;98475.00;;;;5052841;28;20049;-60
2023/04/11 10:27:52;;;;;;;4.53;1.48;;;;;14.00;98481.00;;;;5052672;28;20044;-61
2023/04/11 10:30:40;;;;;;;3.38;1.05;;;;;14.20;98487.00;;;;5052508;28;20132;-58
2023/04/11 10:33:10;;;;;;;3.53;1.30;;;;;14.10;98496.00;;;;5052646;28;20036;-60
2023/04/11 10:36:14;;;;;;;6.95;1.98;;;;;14.00;98492.00;;;;5052912;28;20049;-62
2023/04/11 10:38:43;;;;;;;7.85;1.95;;;;;13.70;98497.00;;;;5052472;28;20051;-59
2023/04/11 10:41:26;;;;;;;7.05;1.95;;;;;13.70;98496.00;;;;5052787;28;20448;-60
2023/04/11 10:44:12;;;;;;;8.20;1.60;;;;;13.40;98517.00;;;;5052419;28;20051;-59
2023/04/11 10:46:52;;;;;;;6.45;1.92;;;;;13.20;98520.00;;;;5052403;28;20490;-60
2023/04/11 10:49:36;;;;;;;5.95;1.52;;;;;12.90;98526.00;;;;5052324;28;20053;-58
2023/04/11 10:52:17;;;;;;;3.92;1.20;;;;;12.80;98511.00;;;;5052259;28;20528;-58
2023/04/11 10:54:47;;;;;;;15.13;7.43;;;;;13.00;98509.00;;;;5052148;28;20041;-58
2023/04/11 10:57:13;;;;;;;3.92;1.38;;;;;13.00;98499.00;;;;5050681;28;20048;-60
2023/04/11 10:59:43;;;;;;;4.35;1.20;;;;;13.10;98498.00;;;;5051962;28;20447;-60
2023/04/11 11:02:10;;;;;;;4.80;1.60;;;;;13.00;98489.00;;;;5052083;28;20056;-60
2023/04/11 11:04:37;;;;;;;6.68;1.70;;;;;13.00;98495.00;;;;5052419;28;20044;-60
2023/04/11 11:07:13;;;;;;;3.15;1.30;;;;;13.20;98487.00;;;;5052435;28;20049;-61
2023/04/11 11:09:39;;;;;;;5.65;1.83;;;;;13.30;98488.00;;;;5052067;28;20055;-58
2023/04/11 11:12:13;;;;;;;6.45;1.25;;;;;13.30;98482.00;;;;5052415;28;20569;-59
2023/04/11 11:14:45;;;;;;;7.28;1.60;;;;;13.40;98465.00;;;;5052491;28;20051;-60
2023/04/11 11:17:14;;;;;;;5.97;1.48;;;;;13.60;98462.00;;;;5051921;28;20541;-60
2023/04/11 11:19:47;;;;;;;10.40;1.70;;;;;13.80;98469.00;;;;5050558;28;20143;-64
2023/04/11 11:22:16;;;;;;;8.25;2.25;;;;;14.00;98456.00;;;;5052103;28;20108;-61
2023/04/11 11:24:44;;;;;;;3.00;1.48;;;;;14.10;98448.00;;;;5033794;28;20103;-61
2023/04/11 11:27:19;;;;;;;2.70;1.40;;;;;14.30;98466.00;;;;5051974;28;20045;-58
2023/04/11 11:29:53;;;;;;;5.43;1.50;;;;;14.50;98459.00;;;;5050461;28;20065;-63
2023/04/11 11:32:23;;;;;;;6.40;1.13;;;;;14.50;98477.00;;;;5050389;28;20059;-61
2023/04/11 11:34:51;;;;;;;5.43;1.10;;;;;14.40;98475.00;;;;5051594;28;20045;-59
2023/04/11 11:37:18;;;;;;;7.75;1.45;;;;;14.40;98455.00;;;;5050800;28;20041;-58
2023/04/11 11:39:45;;;;;;;5.85;1.30;;;;;14.50;98464.00;;;;5051712;28;20120;-62
2023/04/11 11:42:11;;;;;;;8.20;1.45;;;;;14.60;98467.00;;;;5051954;28;20493;-60
2023/04/11 11:44:38;;;;;;;7.05;1.77;;;;;14.70;98483.00;;;;5052126;28;20056;-60
2023/04/11 11:47:07;;;;;;;4.05;1.20;;;;;14.80;98459.00;;;;5051761;28;20055;-59
2023/04/11 11:49:54;;;;;;;4.97;1.45;;;;;14.90;98469.00;;;;5054830;28;20045;-60
2023/04/11 11:52:40;;;;;;;3.47;1.13;;;;;14.90;98448.00;;;;5055556;28;20106;-60
2023/04/11 11:55:21;;;;;;;3.08;1.20;;;;;15.00;98459.00;;;;5055907;28;20037;-61
2023/04/11 11:57:48;;;;;;;5.22;1.30;;;;;15.10;98462.00;;;;5055199;28;20052;-58
2023/04/11 12:00:23;;;;;;;4.35;1.20;;;;;15.20;98454.00;;;;5055078;28;20083;-58
2023/04/11 12:02:51;;;;;;;5.55;1.10;;;;;15.30;98456.00;;;;5055387;28;20052;-57
2023/04/11 12:05:19;;;;;;;4.13;1.27;;;;;15.30;98453.00;;;;5055275;28;20075;-59
2023/04/11 12:07:45;;;;;;;4.88;1.10;;;;;15.50;98457.00;;;;5055139;28;20037;-59
2023/04/11 12:10:15;;;;;;;5.50;1.38;;;;;15.70;98436.00;;;;5054805;28;20461;-58
2023/04/11 12:12:47;;;;;;;5.10;1.67;;;;;15.90;98439.00;;;;5055236;28;20102;-58
2023/04/11 12:15:21;;;;;;;5.30;1.65;;;;;16.00;98444.00;;;;5055218;28;20037;-58
2023/04/11 12:17:52;;;;;;;8.60;1.60;;;;;16.20;98455.00;;;;5055039;28;20041;-58
2023/04/11 12:20:26;;;;;;;4.20;1.10;;;;;16.10;98463.00;;;;5054771;28;20076;-59
2023/04/11 12:22:53;;;;;;;2.90;1.23;;;;;15.90;98477.00;;;;5054964;28;20514;-59
2023/04/11 12:25:21;;;;;;;4.18;1.38;;;;;15.90;98471.00;;;;5055006;28;20527;-58
2023/04/11 12:27:48;;;;;;;2.50;1.10;;;;;16.20;98472.00;;;;5055035;28;20063;-59